Anchorage/Merrill Field, Alaska
Current Conditions -  °F | °C
As of 4:53 PM on Friday 31 Oct 2014 (Local Time) from PAMR Reporting Station
Overcast Overcast  
Wind Chill: 22°   Ceiling: 7000
Heat Index: 28°   Visibility: 10mi
Dew Point: 16°   Wind: 6mph
Humidity: 61%   Direction: 360°N
Pressure: 29.2"   Gusts: NA
Location:  61.21°N, 149.85°W
Report Text: PAMR 010053Z 36005KT 10SM FEW010 OVC070 M02/M09 A2920 RMK AO2 SLP889 T10221089
Loading
Personal Weather Stations






























Interactive Weather Map
Tropical Storm Tracking
New forecast layout! Learn more

10-Day Weather Forecast

Advertisements
Track Severe Weather on mobile